sensor_id;sensor_type;location;lat;lon;timestamp;P1;durP1;ratioP1;P2;durP2;ratioP2
8665;SDS011;4370;48.916;8.380;2023-03-30T00:02:18;4.23;;;2.37;;
8665;SDS011;4370;48.916;8.380;2023-03-30T00:04:47;8.60;;;2.30;;
8665;SDS011;4370;48.916;8.380;2023-03-30T00:07:12;6.90;;;2.17;;
8665;SDS011;4370;48.916;8.380;2023-03-30T00:09:39;5.27;;;2.03;;
8665;SDS011;4370;48.916;8.380;2023-03-30T00:12:08;5.80;;;2.27;;
8665;SDS011;4370;48.916;8.380;2023-03-30T00:14:34;5.57;;;1.90;;
8665;SDS011;4370;48.916;8.380;2023-03-30T00:17:03;4.33;;;2.00;;
8665;SDS011;4370;48.916;8.380;2023-03-30T00:19:29;6.70;;;2.10;;
8665;SDS011;4370;48.916;8.380;2023-03-30T00:21:55;4.07;;;2.00;;
8665;SDS011;4370;48.916;8.380;2023-03-30T00:24:21;3.47;;;1.97;;
8665;SDS011;4370;48.916;8.380;2023-03-30T00:26:47;4.07;;;1.90;;
8665;SDS011;4370;48.916;8.380;2023-03-30T00:29:13;7.83;;;2.43;;
8665;SDS011;4370;48.916;8.380;2023-03-30T00:31:39;6.77;;;2.33;;
8665;SDS011;4370;48.916;8.380;2023-03-30T00:34:04;3.80;;;2.00;;
8665;SDS011;4370;48.916;8.380;2023-03-30T00:36:30;5.63;;;2.17;;
8665;SDS011;4370;48.916;8.380;2023-03-30T00:39:03;7.23;;;2.37;;
8665;SDS011;4370;48.916;8.380;2023-03-30T00:41:31;4.60;;;2.33;;
8665;SDS011;4370;48.916;8.380;2023-03-30T00:44:01;5.17;;;2.57;;
8665;SDS011;4370;48.916;8.380;2023-03-30T00:46:29;6.77;;;2.40;;
8665;SDS011;4370;48.916;8.380;2023-03-30T00:48:55;5.83;;;2.20;;
8665;SDS011;4370;48.916;8.380;2023-03-30T00:51:29;3.40;;;2.37;;
8665;SDS011;4370;48.916;8.380;2023-03-30T00:54:01;7.17;;;2.43;;
8665;SDS011;4370;48.916;8.380;2023-03-30T00:56:31;5.03;;;2.50;;
8665;SDS011;4370;48.916;8.380;2023-03-30T00:58:58;6.13;;;2.30;;
8665;SDS011;4370;48.916;8.380;2023-03-30T01:01:26;7.60;;;2.80;;
8665;SDS011;4370;48.916;8.380;2023-03-30T01:03:54;10.73;;;2.30;;
8665;SDS011;4370;48.916;8.380;2023-03-30T01:06:27;6.83;;;2.27;;
8665;SDS011;4370;48.916;8.380;2023-03-30T01:08:55;7.23;;;2.70;;
8665;SDS011;4370;48.916;8.380;2023-03-30T01:11:22;10.23;;;2.60;;
8665;SDS011;4370;48.916;8.380;2023-03-30T01:13:50;8.77;;;2.60;;
8665;SDS011;4370;48.916;8.380;2023-03-30T01:30:25;9.47;;;2.63;;
8665;SDS011;4370;48.916;8.380;2023-03-30T01:43:15;5.17;;;2.13;;
8665;SDS011;4370;48.916;8.380;2023-03-30T01:45:50;5.30;;;2.10;;
8665;SDS011;4370;48.916;8.380;2023-03-30T01:48:28;6.63;;;2.00;;
8665;SDS011;4370;48.916;8.380;2023-03-30T01:51:04;5.57;;;2.63;;
8665;SDS011;4370;48.916;8.380;2023-03-30T01:53:37;4.67;;;2.40;;
8665;SDS011;4370;48.916;8.380;2023-03-30T01:56:22;7.90;;;2.57;;
8665;SDS011;4370;48.916;8.380;2023-03-30T01:58:53;11.67;;;3.07;;
8665;SDS011;4370;48.916;8.380;2023-03-30T02:01:22;13.90;;;3.67;;
8665;SDS011;4370;48.916;8.380;2023-03-30T02:03:52;11.60;;;3.30;;
8665;SDS011;4370;48.916;8.380;2023-03-30T02:06:40;22.43;;;3.97;;
8665;SDS011;4370;48.916;8.380;2023-03-30T02:09:14;13.50;;;3.03;;
8665;SDS011;4370;48.916;8.380;2023-03-30T02:11:43;13.60;;;3.03;;
8665;SDS011;4370;48.916;8.380;2023-03-30T02:14:13;13.03;;;3.30;;
8665;SDS011;4370;48.916;8.380;2023-03-30T02:16:44;12.17;;;3.53;;
8665;SDS011;4370;48.916;8.380;2023-03-30T02:19:14;17.50;;;4.00;;
8665;SDS011;4370;48.916;8.380;2023-03-30T02:21:41;12.87;;;3.20;;
8665;SDS011;4370;48.916;8.380;2023-03-30T02:24:09;18.27;;;4.00;;
8665;SDS011;4370;48.916;8.380;2023-03-30T02:26:44;14.60;;;3.60;;
8665;SDS011;4370;48.916;8.380;2023-03-30T02:29:11;9.50;;;3.53;;
8665;SDS011;4370;48.916;8.380;2023-03-30T02:31:37;17.33;;;3.53;;
8665;SDS011;4370;48.916;8.380;2023-03-30T02:34:08;15.27;;;3.80;;
8665;SDS011;4370;48.916;8.380;2023-03-30T02:39:43;13.00;;;4.20;;
8665;SDS011;4370;48.916;8.380;2023-03-30T02:42:37;13.40;;;3.70;;
8665;SDS011;4370;48.916;8.380;2023-03-30T02:47:43;17.27;;;3.77;;
8665;SDS011;4370;48.916;8.380;2023-03-30T02:50:13;10.03;;;3.10;;
8665;SDS011;4370;48.916;8.380;2023-03-30T03:01:10;10.40;;;2.70;;
8665;SDS011;4370;48.916;8.380;2023-03-30T03:03:53;13.27;;;3.80;;
8665;SDS011;4370;48.916;8.380;2023-03-30T03:06:22;19.13;;;3.37;;
8665;SDS011;4370;48.916;8.380;2023-03-30T03:08:48;11.80;;;3.37;;
8665;SDS011;4370;48.916;8.380;2023-03-30T03:11:14;8.63;;;3.00;;
8665;SDS011;4370;48.916;8.380;2023-03-30T03:13:41;12.93;;;3.13;;
8665;SDS011;4370;48.916;8.380;2023-03-30T03:16:07;11.97;;;3.57;;
8665;SDS011;4370;48.916;8.380;2023-03-30T03:18:37;10.40;;;3.30;;
8665;SDS011;4370;48.916;8.380;2023-03-30T03:21:04;11.33;;;3.27;;
8665;SDS011;4370;48.916;8.380;2023-03-30T03:23:30;14.90;;;3.00;;
8665;SDS011;4370;48.916;8.380;2023-03-30T03:25:56;12.97;;;3.13;;
8665;SDS011;4370;48.916;8.380;2023-03-30T03:28:22;12.40;;;3.40;;
8665;SDS011;4370;48.916;8.380;2023-03-30T03:30:48;12.83;;;3.67;;
8665;SDS011;4370;48.916;8.380;2023-03-30T03:33:14;14.90;;;3.50;;
8665;SDS011;4370;48.916;8.380;2023-03-30T03:35:40;10.83;;;3.20;;
8665;SDS011;4370;48.916;8.380;2023-03-30T03:38:09;17.23;;;4.63;;
8665;SDS011;4370;48.916;8.380;2023-03-30T03:40:35;9.53;;;2.90;;
8665;SDS011;4370;48.916;8.380;2023-03-30T03:43:01;16.53;;;3.57;;
8665;SDS011;4370;48.916;8.380;2023-03-30T03:45:27;12.87;;;3.30;;
8665;SDS011;4370;48.916;8.380;2023-03-30T03:47:53;17.50;;;3.53;;
8665;SDS011;4370;48.916;8.380;2023-03-30T03:50:19;15.70;;;3.50;;
8665;SDS011;4370;48.916;8.380;2023-03-30T03:52:44;11.23;;;3.40;;
8665;SDS011;4370;48.916;8.380;2023-03-30T03:55:10;14.37;;;3.03;;
8665;SDS011;4370;48.916;8.380;2023-03-30T03:57:37;14.23;;;3.53;;
8665;SDS011;4370;48.916;8.380;2023-03-30T04:00:03;11.70;;;2.93;;
8665;SDS011;4370;48.916;8.380;2023-03-30T04:02:39;14.63;;;3.27;;
8665;SDS011;4370;48.916;8.380;2023-03-30T04:05:05;15.77;;;3.77;;
8665;SDS011;4370;48.916;8.380;2023-03-30T04:07:32;10.40;;;3.37;;
8665;SDS011;4370;48.916;8.380;2023-03-30T04:09:58;15.80;;;3.70;;
8665;SDS011;4370;48.916;8.380;2023-03-30T04:12:24;17.70;;;4.23;;
8665;SDS011;4370;48.916;8.380;2023-03-30T04:14:50;18.40;;;3.77;;
8665;SDS011;4370;48.916;8.380;2023-03-30T04:17:15;11.47;;;3.27;;
8665;SDS011;4370;48.916;8.380;2023-03-30T04:19:41;13.97;;;3.53;;
8665;SDS011;4370;48.916;8.380;2023-03-30T04:22:07;15.07;;;3.87;;
8665;SDS011;4370;48.916;8.380;2023-03-30T04:24:37;12.87;;;3.77;;
8665;SDS011;4370;48.916;8.380;2023-03-30T04:27:03;20.77;;;4.33;;
8665;SDS011;4370;48.916;8.380;2023-03-30T04:29:29;21.30;;;4.13;;
8665;SDS011;4370;48.916;8.380;2023-03-30T04:31:55;13.53;;;4.27;;
8665;SDS011;4370;48.916;8.380;2023-03-30T04:34:26;15.67;;;3.77;;
8665;SDS011;4370;48.916;8.380;2023-03-30T04:36:54;9.37;;;3.53;;
8665;SDS011;4370;48.916;8.380;2023-03-30T04:39:21;19.07;;;4.03;;
8665;SDS011;4370;48.916;8.380;2023-03-30T04:41:47;16.00;;;3.73;;
8665;SDS011;4370;48.916;8.380;2023-03-30T04:44:15;12.07;;;4.00;;
8665;SDS011;4370;48.916;8.380;2023-03-30T04:46:44;17.67;;;4.57;;
8665;SDS011;4370;48.916;8.380;2023-03-30T04:49:10;13.17;;;3.90;;
8665;SDS011;4370;48.916;8.380;2023-03-30T04:51:36;17.30;;;4.63;;
8665;SDS011;4370;48.916;8.380;2023-03-30T04:54:03;15.57;;;3.70;;
8665;SDS011;4370;48.916;8.380;2023-03-30T04:56:30;18.20;;;3.90;;
8665;SDS011;4370;48.916;8.380;2023-03-30T04:58:56;13.30;;;3.60;;
8665;SDS011;4370;48.916;8.380;2023-03-30T05:01:22;13.40;;;3.53;;
8665;SDS011;4370;48.916;8.380;2023-03-30T05:03:48;14.73;;;4.00;;
8665;SDS011;4370;48.916;8.380;2023-03-30T05:06:14;10.70;;;3.60;;
8665;SDS011;4370;48.916;8.380;2023-03-30T05:08:40;13.70;;;3.77;;
8665;SDS011;4370;48.916;8.380;2023-03-30T05:11:06;12.97;;;3.60;;
8665;SDS011;4370;48.916;8.380;2023-03-30T05:13:32;10.37;;;3.50;;
8665;SDS011;4370;48.916;8.380;2023-03-30T05:15:57;8.53;;;3.47;;
8665;SDS011;4370;48.916;8.380;2023-03-30T05:18:23;12.90;;;3.37;;
8665;SDS011;4370;48.916;8.380;2023-03-30T05:20:49;14.90;;;3.67;;
8665;SDS011;4370;48.916;8.380;2023-03-30T05:23:15;16.70;;;3.43;;
8665;SDS011;4370;48.916;8.380;2023-03-30T05:25:41;13.10;;;3.70;;
8665;SDS011;4370;48.916;8.380;2023-03-30T05:28:10;12.90;;;4.40;;
8665;SDS011;4370;48.916;8.380;2023-03-30T05:30:36;15.20;;;4.20;;
8665;SDS011;4370;48.916;8.380;2023-03-30T05:33:02;17.40;;;4.57;;
8665;SDS011;4370;48.916;8.380;2023-03-30T05:35:29;14.80;;;4.43;;
8665;SDS011;4370;48.916;8.380;2023-03-30T05:37:55;15.23;;;4.33;;
8665;SDS011;4370;48.916;8.380;2023-03-30T05:40:21;14.13;;;4.47;;
8665;SDS011;4370;48.916;8.380;2023-03-30T05:42:47;10.67;;;4.07;;
8665;SDS011;4370;48.916;8.380;2023-03-30T05:45:13;16.37;;;4.40;;
8665;SDS011;4370;48.916;8.380;2023-03-30T05:47:39;18.43;;;5.93;;
8665;SDS011;4370;48.916;8.380;2023-03-30T05:50:05;19.37;;;4.97;;
8665;SDS011;4370;48.916;8.380;2023-03-30T05:52:31;14.90;;;4.47;;
8665;SDS011;4370;48.916;8.380;2023-03-30T05:54:57;16.47;;;5.13;;
8665;SDS011;4370;48.916;8.380;2023-03-30T05:57:23;15.63;;;4.60;;
8665;SDS011;4370;48.916;8.380;2023-03-30T05:59:49;18.37;;;4.73;;
8665;SDS011;4370;48.916;8.380;2023-03-30T06:02:16;16.97;;;5.20;;
8665;SDS011;4370;48.916;8.380;2023-03-30T06:04:43;16.27;;;4.93;;
8665;SDS011;4370;48.916;8.380;2023-03-30T06:07:09;12.87;;;4.30;;
8665;SDS011;4370;48.916;8.380;2023-03-30T06:09:35;22.00;;;5.30;;
8665;SDS011;4370;48.916;8.380;2023-03-30T06:12:01;14.37;;;3.90;;
8665;SDS011;4370;48.916;8.380;2023-03-30T06:14:27;16.53;;;4.80;;
8665;SDS011;4370;48.916;8.380;2023-03-30T06:16:53;15.33;;;4.10;;
8665;SDS011;4370;48.916;8.380;2023-03-30T06:19:19;13.70;;;4.03;;
8665;SDS011;4370;48.916;8.380;2023-03-30T06:21:45;14.90;;;4.60;;
8665;SDS011;4370;48.916;8.380;2023-03-30T06:24:11;13.80;;;4.30;;
8665;SDS011;4370;48.916;8.380;2023-03-30T06:26:37;16.10;;;4.60;;
8665;SDS011;4370;48.916;8.380;2023-03-30T06:29:04;16.23;;;4.17;;
8665;SDS011;4370;48.916;8.380;2023-03-30T06:31:30;11.83;;;4.10;;
8665;SDS011;4370;48.916;8.380;2023-03-30T06:33:57;15.40;;;4.57;;
8665;SDS011;4370;48.916;8.380;2023-03-30T06:36:23;11.20;;;4.27;;
8665;SDS011;4370;48.916;8.380;2023-03-30T06:38:49;13.83;;;4.60;;
8665;SDS011;4370;48.916;8.380;2023-03-30T06:41:15;19.00;;;4.53;;
8665;SDS011;4370;48.916;8.380;2023-03-30T06:43:41;18.93;;;4.63;;
8665;SDS011;4370;48.916;8.380;2023-03-30T06:46:07;12.23;;;4.97;;
8665;SDS011;4370;48.916;8.380;2023-03-30T06:48:33;16.50;;;5.10;;
8665;SDS011;4370;48.916;8.380;2023-03-30T06:50:59;17.63;;;4.50;;
8665;SDS011;4370;48.916;8.380;2023-03-30T06:53:26;18.10;;;5.57;;
8665;SDS011;4370;48.916;8.380;2023-03-30T06:55:55;12.30;;;4.67;;
8665;SDS011;4370;48.916;8.380;2023-03-30T06:58:22;17.53;;;5.13;;
8665;SDS011;4370;48.916;8.380;2023-03-30T07:00:49;13.77;;;4.80;;
8665;SDS011;4370;48.916;8.380;2023-03-30T07:03:15;18.90;;;4.80;;
8665;SDS011;4370;48.916;8.380;2023-03-30T07:05:43;16.77;;;5.53;;
8665;SDS011;4370;48.916;8.380;2023-03-30T07:08:08;14.90;;;4.63;;
8665;SDS011;4370;48.916;8.380;2023-03-30T07:10:34;15.60;;;5.27;;
8665;SDS011;4370;48.916;8.380;2023-03-30T07:13:00;10.53;;;4.53;;
8665;SDS011;4370;48.916;8.380;2023-03-30T07:15:26;11.43;;;4.40;;
8665;SDS011;4370;48.916;8.380;2023-03-30T07:17:52;13.97;;;5.00;;
8665;SDS011;4370;48.916;8.380;2023-03-30T07:20:18;7.90;;;4.27;;
8665;SDS011;4370;48.916;8.380;2023-03-30T07:22:44;17.73;;;4.43;;
8665;SDS011;4370;48.916;8.380;2023-03-30T07:25:10;9.57;;;4.10;;
8665;SDS011;4370;48.916;8.380;2023-03-30T07:27:36;11.87;;;4.33;;
8665;SDS011;4370;48.916;8.380;2023-03-30T07:30:03;10.03;;;4.33;;
8665;SDS011;4370;48.916;8.380;2023-03-30T07:32:29;8.37;;;4.10;;
8665;SDS011;4370;48.916;8.380;2023-03-30T07:34:55;7.70;;;4.27;;
8665;SDS011;4370;48.916;8.380;2023-03-30T07:37:22;7.97;;;3.80;;
8665;SDS011;4370;48.916;8.380;2023-03-30T07:39:48;9.40;;;3.97;;
8665;SDS011;4370;48.916;8.380;2023-03-30T07:42:14;11.33;;;4.63;;
8665;SDS011;4370;48.916;8.380;2023-03-30T07:44:40;10.13;;;4.37;;
8665;SDS011;4370;48.916;8.380;2023-03-30T07:47:06;11.07;;;4.13;;
8665;SDS011;4370;48.916;8.380;2023-03-30T07:49:32;10.90;;;4.57;;
8665;SDS011;4370;48.916;8.380;2023-03-30T07:51:58;14.07;;;4.20;;
8665;SDS011;4370;48.916;8.380;2023-03-30T07:54:25;10.27;;;4.07;;
8665;SDS011;4370;48.916;8.380;2023-03-30T07:56:51;9.87;;;4.00;;
8665;SDS011;4370;48.916;8.380;2023-03-30T07:59:17;7.87;;;3.60;;
8665;SDS011;4370;48.916;8.380;2023-03-30T08:01:44;7.20;;;3.60;;
8665;SDS011;4370;48.916;8.380;2023-03-30T08:04:10;10.63;;;4.17;;
8665;SDS011;4370;48.916;8.380;2023-03-30T08:06:37;7.57;;;4.03;;
8665;SDS011;4370;48.916;8.380;2023-03-30T08:09:03;7.63;;;3.50;;
8665;SDS011;4370;48.916;8.380;2023-03-30T08:11:29;7.87;;;3.20;;
8665;SDS011;4370;48.916;8.380;2023-03-30T08:13:57;7.93;;;3.10;;
8665;SDS011;4370;48.916;8.380;2023-03-30T08:16:22;8.23;;;2.70;;
8665;SDS011;4370;48.916;8.380;2023-03-30T08:18:48;5.10;;;2.20;;
8665;SDS011;4370;48.916;8.380;2023-03-30T08:21:18;3.70;;;2.20;;
8665;SDS011;4370;48.916;8.380;2023-03-30T08:23:44;6.20;;;2.20;;
8665;SDS011;4370;48.916;8.380;2023-03-30T08:26:10;3.47;;;2.37;;
8665;SDS011;4370;48.916;8.380;2023-03-30T08:28:36;5.50;;;2.07;;
8665;SDS011;4370;48.916;8.380;2023-03-30T08:31:03;5.43;;;2.47;;
8665;SDS011;4370;48.916;8.380;2023-03-30T08:33:30;5.67;;;2.53;;
8665;SDS011;4370;48.916;8.380;2023-03-30T08:35:56;4.03;;;2.30;;
8665;SDS011;4370;48.916;8.380;2023-03-30T08:38:22;6.10;;;2.60;;
8665;SDS011;4370;48.916;8.380;2023-03-30T08:40:48;7.57;;;2.60;;
8665;SDS011;4370;48.916;8.380;2023-03-30T08:46:13;3.50;;;2.20;;
8665;SDS011;4370;48.916;8.380;2023-03-30T08:48:41;8.53;;;2.73;;
8665;SDS011;4370;48.916;8.380;2023-03-30T08:54:03;5.03;;;2.10;;
8665;SDS011;4370;48.916;8.380;2023-03-30T08:57:19;3.40;;;2.03;;
8665;SDS011;4370;48.916;8.380;2023-03-30T08:59:42;5.33;;;2.33;;
8665;SDS011;4370;48.916;8.380;2023-03-30T09:02:31;5.37;;;2.13;;
8665;SDS011;4370;48.916;8.380;2023-03-30T09:07:32;4.73;;;2.00;;
8665;SDS011;4370;48.916;8.380;2023-03-30T09:10:12;5.60;;;2.47;;
8665;SDS011;4370;48.916;8.380;2023-03-30T09:12:51;8.77;;;2.40;;
8665;SDS011;4370;48.916;8.380;2023-03-30T09:20:23;9.23;;;2.80;;
8665;SDS011;4370;48.916;8.380;2023-03-30T09:22:51;9.70;;;2.60;;
8665;SDS011;4370;48.916;8.380;2023-03-30T09:25:19;9.60;;;2.67;;
8665;SDS011;4370;48.916;8.380;2023-03-30T09:27:54;7.37;;;2.83;;
8665;SDS011;4370;48.916;8.380;2023-03-30T09:30:38;6.37;;;2.70;;
8665;SDS011;4370;48.916;8.380;2023-03-30T09:33:09;8.63;;;3.37;;
8665;SDS011;4370;48.916;8.380;2023-03-30T09:36:09;9.13;;;2.97;;
8665;SDS011;4370;48.916;8.380;2023-03-30T09:38:37;6.30;;;2.93;;
8665;SDS011;4370;48.916;8.380;2023-03-30T09:43:40;6.90;;;3.17;;
8665;SDS011;4370;48.916;8.380;2023-03-30T09:46:10;9.90;;;3.63;;
8665;SDS011;4370;48.916;8.380;2023-03-30T09:48:41;11.80;;;3.10;;
8665;SDS011;4370;48.916;8.380;2023-03-30T09:51:24;9.87;;;3.50;;
8665;SDS011;4370;48.916;8.380;2023-03-30T09:53:53;6.70;;;3.20;;
8665;SDS011;4370;48.916;8.380;2023-03-30T09:58:50;8.53;;;3.57;;
8665;SDS011;4370;48.916;8.380;2023-03-30T10:01:17;8.53;;;3.47;;
8665;SDS011;4370;48.916;8.380;2023-03-30T10:03:45;8.87;;;3.00;;
8665;SDS011;4370;48.916;8.380;2023-03-30T10:06:29;10.07;;;3.43;;
8665;SDS011;4370;48.916;8.380;2023-03-30T10:09:02;6.37;;;3.23;;
8665;SDS011;4370;48.916;8.380;2023-03-30T10:11:43;13.93;;;3.47;;
8665;SDS011;4370;48.916;8.380;2023-03-30T10:14:20;9.63;;;3.00;;
8665;SDS011;4370;48.916;8.380;2023-03-30T10:16:56;6.00;;;2.93;;
8665;SDS011;4370;48.916;8.380;2023-03-30T10:19:23;6.60;;;3.10;;
8665;SDS011;4370;48.916;8.380;2023-03-30T10:21:52;5.07;;;2.90;;
8665;SDS011;4370;48.916;8.380;2023-03-30T10:24:23;5.80;;;2.87;;
8665;SDS011;4370;48.916;8.380;2023-03-30T10:26:54;6.27;;;2.77;;
8665;SDS011;4370;48.916;8.380;2023-03-30T10:29:22;6.07;;;3.00;;
8665;SDS011;4370;48.916;8.380;2023-03-30T10:31:52;5.70;;;3.23;;
8665;SDS011;4370;48.916;8.380;2023-03-30T10:34:42;10.03;;;3.40;;
8665;SDS011;4370;48.916;8.380;2023-03-30T10:37:12;8.63;;;3.03;;
8665;SDS011;4370;48.916;8.380;2023-03-30T10:39:57;6.37;;;2.50;;
8665;SDS011;4370;48.916;8.380;2023-03-30T10:42:25;6.73;;;2.70;;
8665;SDS011;4370;48.916;8.380;2023-03-30T10:44:54;5.60;;;2.60;;
8665;SDS011;4370;48.916;8.380;2023-03-30T10:52:39;6.73;;;2.77;;
8665;SDS011;4370;48.916;8.380;2023-03-30T11:01:32;4.73;;;2.27;;
8665;SDS011;4370;48.916;8.380;2023-03-30T11:04:01;4.37;;;2.40;;
8665;SDS011;4370;48.916;8.380;2023-03-30T11:06:40;6.50;;;2.67;;
8665;SDS011;4370;48.916;8.380;2023-03-30T11:09:09;8.00;;;2.70;;
8665;SDS011;4370;48.916;8.380;2023-03-30T11:11:48;5.80;;;2.63;;
8665;SDS011;4370;48.916;8.380;2023-03-30T11:14:37;8.17;;;3.17;;
8665;SDS011;4370;48.916;8.380;2023-03-30T11:17:21;8.63;;;3.03;;
8665;SDS011;4370;48.916;8.380;2023-03-30T11:19:53;9.23;;;3.10;;
8665;SDS011;4370;48.916;8.380;2023-03-30T11:24:46;8.67;;;2.87;;
8665;SDS011;4370;48.916;8.380;2023-03-30T11:27:19;7.70;;;2.90;;
8665;SDS011;4370;48.916;8.380;2023-03-30T11:30:01;10.10;;;3.00;;
8665;SDS011;4370;48.916;8.380;2023-03-30T11:38:14;6.00;;;2.97;;
8665;SDS011;4370;48.916;8.380;2023-03-30T11:41:04;12.07;;;2.93;;
8665;SDS011;4370;48.916;8.380;2023-03-30T11:43:36;9.33;;;3.00;;
8665;SDS011;4370;48.916;8.380;2023-03-30T11:46:06;6.20;;;2.90;;
8665;SDS011;4370;48.916;8.380;2023-03-30T11:54:27;8.73;;;3.00;;
8665;SDS011;4370;48.916;8.380;2023-03-30T12:02:45;10.87;;;4.20;;
8665;SDS011;4370;48.916;8.380;2023-03-30T12:08:25;7.73;;;3.17;;
8665;SDS011;4370;48.916;8.380;2023-03-30T12:11:54;11.43;;;2.87;;
8665;SDS011;4370;48.916;8.380;2023-03-30T12:13:59;10.93;;;3.43;;
8665;SDS011;4370;48.916;8.380;2023-03-30T12:16:30;11.00;;;3.27;;
8665;SDS011;4370;48.916;8.380;2023-03-30T12:38:19;9.33;;;3.20;;
8665;SDS011;4370;48.916;8.380;2023-03-30T12:40:53;8.57;;;3.03;;
8665;SDS011;4370;48.916;8.380;2023-03-30T12:43:30;9.17;;;2.80;;
8665;SDS011;4370;48.916;8.380;2023-03-30T12:46:16;8.67;;;3.13;;
8665;SDS011;4370;48.916;8.380;2023-03-30T12:52:06;6.37;;;2.67;;
8665;SDS011;4370;48.916;8.380;2023-03-30T12:54:47;7.97;;;2.63;;
8665;SDS011;4370;48.916;8.380;2023-03-30T12:57:27;7.70;;;3.40;;
8665;SDS011;4370;48.916;8.380;2023-03-30T13:05:22;9.77;;;3.00;;
8665;SDS011;4370;48.916;8.380;2023-03-30T13:07:52;9.17;;;3.23;;
8665;SDS011;4370;48.916;8.380;2023-03-30T13:12:54;13.13;;;4.03;;
8665;SDS011;4370;48.916;8.380;2023-03-30T13:20:34;7.33;;;2.80;;
8665;SDS011;4370;48.916;8.380;2023-03-30T13:26:03;12.23;;;3.83;;
8665;SDS011;4370;48.916;8.380;2023-03-30T13:34:28;9.73;;;3.63;;
8665;SDS011;4370;48.916;8.380;2023-03-30T13:39:43;9.53;;;3.17;;
8665;SDS011;4370;48.916;8.380;2023-03-30T13:44:52;6.97;;;2.77;;
8665;SDS011;4370;48.916;8.380;2023-03-30T13:47:41;10.13;;;3.07;;
8665;SDS011;4370;48.916;8.380;2023-03-30T13:50:25;9.77;;;3.00;;
8665;SDS011;4370;48.916;8.380;2023-03-30T13:52:53;9.20;;;2.90;;
8665;SDS011;4370;48.916;8.380;2023-03-30T13:55:23;8.83;;;2.90;;
8665;SDS011;4370;48.916;8.380;2023-03-30T13:57:57;6.70;;;2.60;;
8665;SDS011;4370;48.916;8.380;2023-03-30T14:00:36;8.10;;;3.27;;
8665;SDS011;4370;48.916;8.380;2023-03-30T14:03:27;12.47;;;3.40;;
8665;SDS011;4370;48.916;8.380;2023-03-30T14:06:02;8.70;;;2.70;;
8665;SDS011;4370;48.916;8.380;2023-03-30T14:08:32;10.53;;;2.63;;
8665;SDS011;4370;48.916;8.380;2023-03-30T14:11:05;5.50;;;2.47;;
8665;SDS011;4370;48.916;8.380;2023-03-30T14:13:37;7.73;;;2.57;;
8665;SDS011;4370;48.916;8.380;2023-03-30T14:16:03;6.73;;;2.37;;
8665;SDS011;4370;48.916;8.380;2023-03-30T14:18:29;6.30;;;2.23;;
8665;SDS011;4370;48.916;8.380;2023-03-30T14:20:55;5.53;;;2.40;;
8665;SDS011;4370;48.916;8.380;2023-03-30T14:23:34;13.37;;;2.87;;
8665;SDS011;4370;48.916;8.380;2023-03-30T14:26:12;7.60;;;2.70;;
8665;SDS011;4370;48.916;8.380;2023-03-30T14:28:40;9.83;;;2.87;;
8665;SDS011;4370;48.916;8.380;2023-03-30T14:31:10;7.07;;;2.80;;
8665;SDS011;4370;48.916;8.380;2023-03-30T14:33:41;5.87;;;2.53;;
8665;SDS011;4370;48.916;8.380;2023-03-30T14:36:07;4.37;;;2.40;;
8665;SDS011;4370;48.916;8.380;2023-03-30T14:38:40;8.10;;;3.03;;
8665;SDS011;4370;48.916;8.380;2023-03-30T14:41:09;8.57;;;2.60;;
8665;SDS011;4370;48.916;8.380;2023-03-30T14:43:40;8.50;;;1.90;;
8665;SDS011;4370;48.916;8.380;2023-03-30T14:46:11;7.53;;;2.10;;
8665;SDS011;4370;48.916;8.380;2023-03-30T14:48:40;5.57;;;1.53;;
8665;SDS011;4370;48.916;8.380;2023-03-30T14:51:24;3.77;;;1.77;;
8665;SDS011;4370;48.916;8.380;2023-03-30T14:53:58;6.83;;;2.60;;
8665;SDS011;4370;48.916;8.380;2023-03-30T14:56:24;3.80;;;1.90;;
8665;SDS011;4370;48.916;8.380;2023-03-30T14:58:52;7.80;;;1.80;;
8665;SDS011;4370;48.916;8.380;2023-03-30T15:01:21;4.50;;;1.60;;
8665;SDS011;4370;48.916;8.380;2023-03-30T15:03:57;7.50;;;1.87;;
8665;SDS011;4370;48.916;8.380;2023-03-30T15:06:32;6.90;;;1.70;;
8665;SDS011;4370;48.916;8.380;2023-03-30T15:08:59;4.03;;;1.87;;
8665;SDS011;4370;48.916;8.380;2023-03-30T15:11:26;5.40;;;1.83;;
8665;SDS011;4370;48.916;8.380;2023-03-30T15:13:54;5.93;;;2.03;;
8665;SDS011;4370;48.916;8.380;2023-03-30T15:16:26;6.23;;;1.90;;
8665;SDS011;4370;48.916;8.380;2023-03-30T15:18:57;3.57;;;1.70;;
8665;SDS011;4370;48.916;8.380;2023-03-30T15:21:37;3.47;;;1.63;;
8665;SDS011;4370;48.916;8.380;2023-03-30T15:24:04;5.27;;;1.63;;
8665;SDS011;4370;48.916;8.380;2023-03-30T15:26:37;4.33;;;1.80;;
8665;SDS011;4370;48.916;8.380;2023-03-30T15:29:11;3.90;;;1.47;;
8665;SDS011;4370;48.916;8.380;2023-03-30T15:31:41;4.93;;;1.90;;
8665;SDS011;4370;48.916;8.380;2023-03-30T15:34:12;4.00;;;1.93;;
8665;SDS011;4370;48.916;8.380;2023-03-30T15:36:40;4.87;;;1.87;;
8665;SDS011;4370;48.916;8.380;2023-03-30T15:39:17;5.67;;;1.60;;
8665;SDS011;4370;48.916;8.380;2023-03-30T15:41:57;4.30;;;1.90;;
8665;SDS011;4370;48.916;8.380;2023-03-30T15:44:28;6.43;;;1.70;;
8665;SDS011;4370;48.916;8.380;2023-03-30T15:47:02;3.80;;;1.60;;
8665;SDS011;4370;48.916;8.380;2023-03-30T15:49:40;5.00;;;1.90;;
8665;SDS011;4370;48.916;8.380;2023-03-30T15:52:10;3.13;;;1.60;;
8665;SDS011;4370;48.916;8.380;2023-03-30T15:54:43;6.03;;;1.80;;
8665;SDS011;4370;48.916;8.380;2023-03-30T15:57:19;2.47;;;1.40;;
8665;SDS011;4370;48.916;8.380;2023-03-30T15:59:52;2.47;;;1.50;;
8665;SDS011;4370;48.916;8.380;2023-03-30T16:04:46;3.50;;;1.40;;
8665;SDS011;4370;48.916;8.380;2023-03-30T16:07:17;4.67;;;1.53;;
8665;SDS011;4370;48.916;8.380;2023-03-30T16:09:48;5.03;;;1.60;;
8665;SDS011;4370;48.916;8.380;2023-03-30T16:12:18;3.87;;;1.40;;
8665;SDS011;4370;48.916;8.380;2023-03-30T16:14:47;5.63;;;1.80;;
8665;SDS011;4370;48.916;8.380;2023-03-30T16:17:14;5.53;;;1.70;;
8665;SDS011;4370;48.916;8.380;2023-03-30T16:19:40;3.47;;;1.50;;
8665;SDS011;4370;48.916;8.380;2023-03-30T16:22:06;3.70;;;1.50;;
8665;SDS011;4370;48.916;8.380;2023-03-30T16:24:33;8.77;;;1.80;;
8665;SDS011;4370;48.916;8.380;2023-03-30T16:26:59;4.47;;;1.60;;
8665;SDS011;4370;48.916;8.380;2023-03-30T16:29:25;6.70;;;1.93;;
8665;SDS011;4370;48.916;8.380;2023-03-30T16:31:51;8.33;;;2.03;;
8665;SDS011;4370;48.916;8.380;2023-03-30T16:34:18;3.93;;;1.60;;
8665;SDS011;4370;48.916;8.380;2023-03-30T16:36:44;5.17;;;1.90;;
8665;SDS011;4370;48.916;8.380;2023-03-30T16:39:14;5.20;;;1.87;;
8665;SDS011;4370;48.916;8.380;2023-03-30T16:41:42;5.03;;;1.67;;
8665;SDS011;4370;48.916;8.380;2023-03-30T16:44:08;5.17;;;1.77;;
8665;SDS011;4370;48.916;8.380;2023-03-30T16:46:34;5.07;;;1.50;;
8665;SDS011;4370;48.916;8.380;2023-03-30T16:49:00;3.67;;;1.50;;
8665;SDS011;4370;48.916;8.380;2023-03-30T16:51:26;5.00;;;1.90;;
8665;SDS011;4370;48.916;8.380;2023-03-30T16:53:52;6.90;;;1.83;;
8665;SDS011;4370;48.916;8.380;2023-03-30T16:56:18;7.33;;;1.60;;
8665;SDS011;4370;48.916;8.380;2023-03-30T16:58:44;6.43;;;2.20;;
8665;SDS011;4370;48.916;8.380;2023-03-30T17:01:11;5.07;;;1.43;;
8665;SDS011;4370;48.916;8.380;2023-03-30T17:03:38;4.07;;;1.50;;
8665;SDS011;4370;48.916;8.380;2023-03-30T17:06:04;4.13;;;1.77;;
8665;SDS011;4370;48.916;8.380;2023-03-30T17:08:30;7.13;;;1.80;;
8665;SDS011;4370;48.916;8.380;2023-03-30T17:10:57;3.67;;;1.50;;
8665;SDS011;4370;48.916;8.380;2023-03-30T17:13:25;5.20;;;2.20;;
8665;SDS011;4370;48.916;8.380;2023-03-30T17:15:52;4.90;;;1.90;;
8665;SDS011;4370;48.916;8.380;2023-03-30T17:18:19;5.07;;;2.10;;
8665;SDS011;4370;48.916;8.380;2023-03-30T17:20:47;9.13;;;2.00;;
8665;SDS011;4370;48.916;8.380;2023-03-30T17:23:15;7.00;;;2.07;;
8665;SDS011;4370;48.916;8.380;2023-03-30T17:25:42;4.53;;;2.20;;
8665;SDS011;4370;48.916;8.380;2023-03-30T17:28:09;5.57;;;2.10;;
8665;SDS011;4370;48.916;8.380;2023-03-30T17:30:43;10.17;;;2.80;;
8665;SDS011;4370;48.916;8.380;2023-03-30T17:33:10;12.87;;;5.10;;
8665;SDS011;4370;48.916;8.380;2023-03-30T17:35:36;10.80;;;3.40;;
8665;SDS011;4370;48.916;8.380;2023-03-30T17:38:03;9.60;;;3.03;;
8665;SDS011;4370;48.916;8.380;2023-03-30T17:40:31;8.75;;;3.80;;
8665;SDS011;4370;48.916;8.380;2023-03-30T17:42:57;6.90;;;2.67;;
8665;SDS011;4370;48.916;8.380;2023-03-30T17:45:24;7.73;;;2.80;;
8665;SDS011;4370;48.916;8.380;2023-03-30T17:47:53;6.57;;;2.40;;
8665;SDS011;4370;48.916;8.380;2023-03-30T17:52:45;6.50;;;2.50;;